Terminal Aerodrome Forecast
Issued by NWS Nashville, TN

Home | Current Version | Previous Version | Text Only | Print | Product List | Glossary On
Versions: 1 2 3 4 5 6 7 8 9 10 11 12 13 14
000
FTUS44 KOHX 280400 AAB
TAFCSV
TAF AMD
KCSV 280444Z 2805/2824 17005KT 5SM BR VCSH BKN015 OVC035
      TEMPO 2805/2809 2SM SHRA SCT015 OVC050
     FM280900 19004KT 4SM -SHRA BR OVC004
     FM281200 29005KT 2SM SHRA BR OVC003
     FM281800 32005KT 5SM -SHRA BR OVC006=

USA.gov is the U.S. government's official web portal to all federal, state and local government web resources and services.